Airfield :
LOGIN :

Register | Disclaimer

   EN    FR    IT 

 










Legend :    VFR   Marginal VFR   IFR   Intensive IFR   Very Intensive IFR
Visi :
Ceiling :
>= 8 km
>= 3000ft
5 to 8 km
1000 to 3000 ft
1500m to 5 km
500 to 1000 ft
800 to 1500m
200 to 500 ft
< 800m
< 200 ft
Symbols :   Thunderstorms  Fog  Heavy snow  Heavy precipitations  Wind > 20 kt
SIGMETs :     Misc.  Thunderstorms  Icing  Turbulence  Mountain Waves  Volcanic Ashes






- Airport Elevation : 291 ft
- IATA code : ORY


LFPO - Paris-Orly

CURRENT METAR :
  • 032030Z 36005KT 330V030 CAVOK 18/09 Q1016 NOSIG

EXPIRED METARs :
  • 032000Z 35005KT 320V020 CAVOK 18/09 Q1016 NOSIG
  • 031930Z 36008KT CAVOK 18/09 Q1016 NOSIG
  • 031900Z 36012KT 9999 FEW046 SCT100 19/09 Q1015 TEMPO SCT040TCU
  • 031830Z 01014KT 9999 FEW046 SCT066 19/09 Q1015 TEMPO SCT040TCU
  • 031800Z 34013KT 310V030 9999 SCT046 SCT066 BKN110 20/10 Q1015 TEMPO SCT040TCU

TAF TAF LFPO
Valid from the 03 at 18:00 until the 05 at 00:00 UTC


031700Z 0318/0424 34008KT CAVOK
TEMPO 0318/0320 34015G25KT -SHRA SCT030TCU
BECMG 0410/0412 VRB03KT
ATIS : +33 1 49 75 65 80



MET'MAP, your aeronautical weather chart ! - Copyright ORBIFLY December 2007 - Disclaimer

ORBIFLY MET'MAP TEAM :

Programming & Development : Alexandra Zaïnal
Concept & original design : Baudouin d'Aumeries
Assistance for programming : Marc-Olivier Méhu
Technical & hardware support : Manuel Goepfert

Contact : metmap@orbifly.com




SOURCES & CREDITS :

   NOAA